Phuket, Thailand

2:48 AM ICT on August 30, 2014 (GMT +0700)
Phuket International | Change Station
CLOSE
Current Station
Airport
Location: Phuket,
Elevation: 30 ft
Nearby Weather Stations

Elev 30 ft 8.11 °N, 98.32 °E | Updated 18 minutes ago

Mostly Cloudy
Mostly Cloudy
75 °F
Feels Like 75 °F
N
0
Wind Variable Wind from North

Today
High -- | Low -- °F
--% Chance of Precip.
Yesterday
High -- | Low -- °F
Precip. -- in
6:18 AM 6:35 PM
Waxing Crescent, 16% visible
Pressure 29.83 in
Visibility 6.2 miles
Clouds Few 1800 ft
Scattered Clouds 12000 ft
Mostly Cloudy 30000 ft
Dew Point 73 °F
Humidity 94%
Rainfall 0.00 in
Snow Depth Not available.
UV 0 out of 12
Pollen Not available.
Air Quality Not available.
Flu Activity Not available.
METAR VTSP 291930Z 00000KT 9999 FEW018 SCT120 BKN300 24/23 Q1010 A2984

More Conditions Fewer Conditions

Pressure 29.83 in
Visibility 6.2 miles
Clouds Few 1800 ft
Scattered Clouds 12000 ft
Mostly Cloudy 30000 ft
Dew Point 73 °F
Humidity 94%
Rainfall 0.00 in
Snow Depth Not available.
UV 0 out of 12
Pollen Not available.
Air Quality Not available.
Flu Activity Not available.
METAR VTSP 291930Z 00000KT 9999 FEW018 SCT120 BKN300 24/23 Q1010 A2984

More Conditions Fewer Conditions

10-Day Weather Forecast

Almanac

Astronomy

Aug. 30, 2014 Rise Set
Actual Time 6:18 AM ICT 6:35 PM ICT
Civil Twilight 5:57 AM ICT 6:57 PM ICT
Nautical Twilight 5:33 AM ICT 7:21 PM ICT
Astronomical Twilight 5:08 AM ICT 7:46 PM ICT
Moon 9:40 AM ICT (8/30) 9:50 PM ICT (8/30)
Length of Visible Light 12h 59m
Length of Day
12h 17m
Tomorrow will be 0m 26s shorter.
Waxing Crescent, 16% of the Moon is Illuminated
Aug 29
Waxing Crescent
Sep 2
First Quarter
Sep 8
Full
Sep 15
Last Quarter
Sep 24
New

Yesterday's Extremes

Country Highs Country Lows

Community

WunderPhotos

Upload Photos

1,748,325 photos uploaded!

WunderBlogs® & News

By Dr. Jeff Masters
Director of Meteorology, Weather Underground
By Kari Strenfel
Meteorologist, Weather Underground
By Christopher C. Burt
Weather Historian, Weather Underground
August 29, 2014
August 29, 2014
August 29, 2014

Nearby

Snow Depth

Not available.

Earthquake Activity

City Distance Mag. Time & Date
No recent earthquake activity has been reported nearby.
Minimum magnitude displayed is 2.5.

Coastal Water Temperatures

Place Temperature
No Stations Reporting

Nearby Weather Stations